sensor_id;sensor_type;location;lat;lon;timestamp;temperature;humidity
5834;DHT22;2943;48.012;10.968;2022-08-19T00:01:36;17.40;99.90
5834;DHT22;2943;48.012;10.968;2022-08-19T00:04:08;17.50;99.90
5834;DHT22;2943;48.012;10.968;2022-08-19T00:06:37;17.40;99.90
5834;DHT22;2943;48.012;10.968;2022-08-19T00:09:08;17.50;99.90
5834;DHT22;2943;48.012;10.968;2022-08-19T00:11:36;17.50;99.90
5834;DHT22;2943;48.012;10.968;2022-08-19T00:14:05;17.50;99.90
5834;DHT22;2943;48.012;10.968;2022-08-19T00:16:34;17.60;99.90
5834;DHT22;2943;48.012;10.968;2022-08-19T00:19:01;17.50;99.90
5834;DHT22;2943;48.012;10.968;2022-08-19T00:21:30;17.50;99.90
5834;DHT22;2943;48.012;10.968;2022-08-19T00:23:58;17.50;99.90
5834;DHT22;2943;48.012;10.968;2022-08-19T00:26:26;17.50;99.90
5834;DHT22;2943;48.012;10.968;2022-08-19T00:28:54;17.50;99.90
5834;DHT22;2943;48.012;10.968;2022-08-19T00:31:22;17.50;99.90
5834;DHT22;2943;48.012;10.968;2022-08-19T00:33:50;17.50;99.90
5834;DHT22;2943;48.012;10.968;2022-08-19T00:36:18;17.50;99.90
5834;DHT22;2943;48.012;10.968;2022-08-19T00:38:47;17.50;99.90
5834;DHT22;2943;48.012;10.968;2022-08-19T00:41:16;17.40;99.90
5834;DHT22;2943;48.012;10.968;2022-08-19T00:43:58;17.40;99.90
5834;DHT22;2943;48.012;10.968;2022-08-19T00:46:26;17.40;99.90
5834;DHT22;2943;48.012;10.968;2022-08-19T00:48:54;17.40;99.90
5834;DHT22;2943;48.012;10.968;2022-08-19T00:51:23;17.40;99.90
5834;DHT22;2943;48.012;10.968;2022-08-19T00:53:54;17.40;99.90
5834;DHT22;2943;48.012;10.968;2022-08-19T00:56:22;17.40;99.90
5834;DHT22;2943;48.012;10.968;2022-08-19T00:58:52;17.40;99.90
5834;DHT22;2943;48.012;10.968;2022-08-19T01:01:21;17.40;99.90
5834;DHT22;2943;48.012;10.968;2022-08-19T01:03:48;17.40;99.90
5834;DHT22;2943;48.012;10.968;2022-08-19T01:06:16;17.40;99.90
5834;DHT22;2943;48.012;10.968;2022-08-19T01:08:43;17.40;99.90
5834;DHT22;2943;48.012;10.968;2022-08-19T01:11:12;17.40;99.90
5834;DHT22;2943;48.012;10.968;2022-08-19T01:13:40;17.40;99.90
5834;DHT22;2943;48.012;10.968;2022-08-19T01:16:09;17.50;99.90
5834;DHT22;2943;48.012;10.968;2022-08-19T01:18:40;17.40;99.90
5834;DHT22;2943;48.012;10.968;2022-08-19T01:21:13;17.40;99.90
5834;DHT22;2943;48.012;10.968;2022-08-19T01:23:44;17.40;99.90
5834;DHT22;2943;48.012;10.968;2022-08-19T01:26:14;17.40;99.90
5834;DHT22;2943;48.012;10.968;2022-08-19T01:28:43;17.40;99.90
5834;DHT22;2943;48.012;10.968;2022-08-19T01:31:17;17.40;99.90
5834;DHT22;2943;48.012;10.968;2022-08-19T01:33:46;17.40;99.90
5834;DHT22;2943;48.012;10.968;2022-08-19T01:36:23;17.30;99.90
5834;DHT22;2943;48.012;10.968;2022-08-19T01:38:53;17.30;99.90
5834;DHT22;2943;48.012;10.968;2022-08-19T01:41:20;17.40;99.90
5834;DHT22;2943;48.012;10.968;2022-08-19T01:43:49;17.40;99.90
5834;DHT22;2943;48.012;10.968;2022-08-19T01:46:18;17.40;99.90
5834;DHT22;2943;48.012;10.968;2022-08-19T01:48:46;17.40;99.90
5834;DHT22;2943;48.012;10.968;2022-08-19T01:51:14;17.40;99.90
5834;DHT22;2943;48.012;10.968;2022-08-19T01:53:41;17.40;99.90
5834;DHT22;2943;48.012;10.968;2022-08-19T01:56:10;17.40;99.90
5834;DHT22;2943;48.012;10.968;2022-08-19T01:58:41;17.40;99.90
5834;DHT22;2943;48.012;10.968;2022-08-19T02:01:09;17.50;99.90
5834;DHT22;2943;48.012;10.968;2022-08-19T02:03:37;17.50;99.90
5834;DHT22;2943;48.012;10.968;2022-08-19T02:06:05;17.50;99.90
5834;DHT22;2943;48.012;10.968;2022-08-19T02:08:35;17.50;99.90
5834;DHT22;2943;48.012;10.968;2022-08-19T02:11:04;17.50;99.90
5834;DHT22;2943;48.012;10.968;2022-08-19T02:13:34;17.40;99.90
5834;DHT22;2943;48.012;10.968;2022-08-19T02:16:02;17.40;99.90
5834;DHT22;2943;48.012;10.968;2022-08-19T02:18:30;17.40;99.90
5834;DHT22;2943;48.012;10.968;2022-08-19T02:20:57;17.40;99.90
5834;DHT22;2943;48.012;10.968;2022-08-19T02:23:25;17.50;99.90
5834;DHT22;2943;48.012;10.968;2022-08-19T02:25:52;17.50;99.90
5834;DHT22;2943;48.012;10.968;2022-08-19T02:28:20;17.50;99.90
5834;DHT22;2943;48.012;10.968;2022-08-19T02:30:48;17.60;99.90
5834;DHT22;2943;48.012;10.968;2022-08-19T02:33:16;17.50;99.90
5834;DHT22;2943;48.012;10.968;2022-08-19T02:35:45;17.50;99.90
5834;DHT22;2943;48.012;10.968;2022-08-19T02:38:13;17.50;99.90
5834;DHT22;2943;48.012;10.968;2022-08-19T02:40:54;17.50;99.90
5834;DHT22;2943;48.012;10.968;2022-08-19T02:43:22;17.50;99.90
5834;DHT22;2943;48.012;10.968;2022-08-19T02:45:52;17.60;99.90
5834;DHT22;2943;48.012;10.968;2022-08-19T02:48:21;17.60;99.90
5834;DHT22;2943;48.012;10.968;2022-08-19T02:50:49;17.60;99.90
5834;DHT22;2943;48.012;10.968;2022-08-19T02:53:21;17.70;99.90
5834;DHT22;2943;48.012;10.968;2022-08-19T02:55:49;17.70;99.90
5834;DHT22;2943;48.012;10.968;2022-08-19T02:58:17;17.70;99.90
5834;DHT22;2943;48.012;10.968;2022-08-19T03:00:47;17.60;99.90
5834;DHT22;2943;48.012;10.968;2022-08-19T03:03:16;17.60;99.90
5834;DHT22;2943;48.012;10.968;2022-08-19T03:05:44;17.60;99.90
5834;DHT22;2943;48.012;10.968;2022-08-19T03:08:13;17.50;99.90
5834;DHT22;2943;48.012;10.968;2022-08-19T03:10:42;17.50;99.90
5834;DHT22;2943;48.012;10.968;2022-08-19T03:13:12;17.40;99.90
5834;DHT22;2943;48.012;10.968;2022-08-19T03:15:41;17.40;99.90
5834;DHT22;2943;48.012;10.968;2022-08-19T03:18:09;17.40;99.90
5834;DHT22;2943;48.012;10.968;2022-08-19T03:20:42;17.40;99.90
5834;DHT22;2943;48.012;10.968;2022-08-19T03:23:10;17.40;99.90
5834;DHT22;2943;48.012;10.968;2022-08-19T03:25:39;17.40;99.90
5834;DHT22;2943;48.012;10.968;2022-08-19T03:28:07;17.40;99.90
5834;DHT22;2943;48.012;10.968;2022-08-19T03:30:35;17.30;99.90
5834;DHT22;2943;48.012;10.968;2022-08-19T03:33:02;17.30;99.90
5834;DHT22;2943;48.012;10.968;2022-08-19T03:35:30;17.30;99.90
5834;DHT22;2943;48.012;10.968;2022-08-19T03:41:23;17.30;99.90
5834;DHT22;2943;48.012;10.968;2022-08-19T03:43:52;17.30;99.90
5834;DHT22;2943;48.012;10.968;2022-08-19T03:46:23;17.30;99.90
5834;DHT22;2943;48.012;10.968;2022-08-19T03:48:53;17.30;99.90
5834;DHT22;2943;48.012;10.968;2022-08-19T03:51:25;17.30;99.90
5834;DHT22;2943;48.012;10.968;2022-08-19T03:53:53;17.20;99.90
5834;DHT22;2943;48.012;10.968;2022-08-19T03:56:22;17.30;99.90
5834;DHT22;2943;48.012;10.968;2022-08-19T03:58:51;17.30;99.90
5834;DHT22;2943;48.012;10.968;2022-08-19T04:01:20;17.30;99.90
5834;DHT22;2943;48.012;10.968;2022-08-19T04:03:48;17.30;99.90
5834;DHT22;2943;48.012;10.968;2022-08-19T04:06:18;17.30;99.90
5834;DHT22;2943;48.012;10.968;2022-08-19T04:08:48;17.40;99.90
5834;DHT22;2943;48.012;10.968;2022-08-19T04:11:19;17.40;99.90
5834;DHT22;2943;48.012;10.968;2022-08-19T04:13:50;17.40;99.90
5834;DHT22;2943;48.012;10.968;2022-08-19T04:16:20;17.40;99.90
5834;DHT22;2943;48.012;10.968;2022-08-19T04:18:49;17.40;99.90
5834;DHT22;2943;48.012;10.968;2022-08-19T04:21:18;17.40;99.90
5834;DHT22;2943;48.012;10.968;2022-08-19T04:23:46;17.50;99.90
5834;DHT22;2943;48.012;10.968;2022-08-19T04:26:14;17.50;99.90
5834;DHT22;2943;48.012;10.968;2022-08-19T04:28:42;17.50;99.90
5834;DHT22;2943;48.012;10.968;2022-08-19T04:31:15;17.50;99.90
5834;DHT22;2943;48.012;10.968;2022-08-19T04:33:43;17.40;99.90
5834;DHT22;2943;48.012;10.968;2022-08-19T04:36:16;17.40;99.90
5834;DHT22;2943;48.012;10.968;2022-08-19T04:38:46;17.40;99.90
5834;DHT22;2943;48.012;10.968;2022-08-19T04:41:13;17.40;99.90
5834;DHT22;2943;48.012;10.968;2022-08-19T04:43:58;17.40;99.90
5834;DHT22;2943;48.012;10.968;2022-08-19T04:46:27;17.50;99.90
5834;DHT22;2943;48.012;10.968;2022-08-19T04:48:56;17.50;99.90
5834;DHT22;2943;48.012;10.968;2022-08-19T04:51:24;17.50;99.90
5834;DHT22;2943;48.012;10.968;2022-08-19T04:53:52;17.60;99.90
5834;DHT22;2943;48.012;10.968;2022-08-19T04:56:20;17.60;99.90
5834;DHT22;2943;48.012;10.968;2022-08-19T04:58:49;17.60;99.90
5834;DHT22;2943;48.012;10.968;2022-08-19T05:01:19;17.70;99.90
5834;DHT22;2943;48.012;10.968;2022-08-19T05:03:51;17.70;99.90
5834;DHT22;2943;48.012;10.968;2022-08-19T05:06:23;17.70;99.90
5834;DHT22;2943;48.012;10.968;2022-08-19T05:08:51;17.70;99.90
5834;DHT22;2943;48.012;10.968;2022-08-19T05:11:22;17.80;99.90
5834;DHT22;2943;48.012;10.968;2022-08-19T05:13:50;17.80;99.90
5834;DHT22;2943;48.012;10.968;2022-08-19T05:16:20;17.80;99.90
5834;DHT22;2943;48.012;10.968;2022-08-19T05:18:49;17.80;99.90
5834;DHT22;2943;48.012;10.968;2022-08-19T05:21:34;17.80;99.90
5834;DHT22;2943;48.012;10.968;2022-08-19T05:24:20;17.80;99.90
5834;DHT22;2943;48.012;10.968;2022-08-19T05:26:49;17.80;99.90
5834;DHT22;2943;48.012;10.968;2022-08-19T05:29:19;17.80;99.90
5834;DHT22;2943;48.012;10.968;2022-08-19T05:31:48;17.80;99.90
5834;DHT22;2943;48.012;10.968;2022-08-19T05:34:18;17.80;99.90
5834;DHT22;2943;48.012;10.968;2022-08-19T05:36:49;17.80;99.90
5834;DHT22;2943;48.012;10.968;2022-08-19T05:39:19;17.80;99.90
5834;DHT22;2943;48.012;10.968;2022-08-19T05:41:49;17.80;99.90
5834;DHT22;2943;48.012;10.968;2022-08-19T05:44:18;17.80;99.90
5834;DHT22;2943;48.012;10.968;2022-08-19T05:46:47;17.70;99.90
5834;DHT22;2943;48.012;10.968;2022-08-19T05:49:17;17.80;99.90
5834;DHT22;2943;48.012;10.968;2022-08-19T05:51:44;17.80;99.90
5834;DHT22;2943;48.012;10.968;2022-08-19T05:54:12;17.80;99.90
5834;DHT22;2943;48.012;10.968;2022-08-19T05:56:40;17.80;99.90
5834;DHT22;2943;48.012;10.968;2022-08-19T05:59:09;17.80;99.90
5834;DHT22;2943;48.012;10.968;2022-08-19T06:01:38;17.70;99.90
5834;DHT22;2943;48.012;10.968;2022-08-19T06:04:06;17.70;99.90
5834;DHT22;2943;48.012;10.968;2022-08-19T06:06:35;17.60;99.90
5834;DHT22;2943;48.012;10.968;2022-08-19T06:09:04;17.60;99.90
5834;DHT22;2943;48.012;10.968;2022-08-19T06:11:35;17.70;99.90
5834;DHT22;2943;48.012;10.968;2022-08-19T06:14:06;17.90;99.90
5834;DHT22;2943;48.012;10.968;2022-08-19T06:16:35;17.90;99.90
5834;DHT22;2943;48.012;10.968;2022-08-19T06:19:06;17.90;99.90
5834;DHT22;2943;48.012;10.968;2022-08-19T06:21:37;18.00;99.90
5834;DHT22;2943;48.012;10.968;2022-08-19T06:24:06;18.00;99.90
5834;DHT22;2943;48.012;10.968;2022-08-19T06:26:34;18.00;99.90
5834;DHT22;2943;48.012;10.968;2022-08-19T06:29:03;18.00;99.90
5834;DHT22;2943;48.012;10.968;2022-08-19T06:31:33;17.90;99.90
5834;DHT22;2943;48.012;10.968;2022-08-19T06:34:02;17.90;99.90
5834;DHT22;2943;48.012;10.968;2022-08-19T06:36:33;17.90;99.90
5834;DHT22;2943;48.012;10.968;2022-08-19T06:39:04;17.90;99.90
5834;DHT22;2943;48.012;10.968;2022-08-19T06:41:35;17.90;99.90
5834;DHT22;2943;48.012;10.968;2022-08-19T06:44:03;17.90;99.90
5834;DHT22;2943;48.012;10.968;2022-08-19T06:46:30;17.80;99.90
5834;DHT22;2943;48.012;10.968;2022-08-19T06:48:58;17.90;99.90
5834;DHT22;2943;48.012;10.968;2022-08-19T06:51:26;17.80;99.90
5834;DHT22;2943;48.012;10.968;2022-08-19T06:53:55;17.80;99.90
5834;DHT22;2943;48.012;10.968;2022-08-19T06:56:26;17.80;99.90
5834;DHT22;2943;48.012;10.968;2022-08-19T06:59:00;17.80;99.90
5834;DHT22;2943;48.012;10.968;2022-08-19T07:01:27;17.70;99.90
5834;DHT22;2943;48.012;10.968;2022-08-19T07:03:55;17.70;99.90
5834;DHT22;2943;48.012;10.968;2022-08-19T07:06:23;17.70;99.90
5834;DHT22;2943;48.012;10.968;2022-08-19T07:08:50;17.70;99.90
5834;DHT22;2943;48.012;10.968;2022-08-19T07:11:18;17.70;99.90
5834;DHT22;2943;48.012;10.968;2022-08-19T07:13:47;17.70;99.90
5834;DHT22;2943;48.012;10.968;2022-08-19T07:16:17;17.70;99.90
5834;DHT22;2943;48.012;10.968;2022-08-19T07:18:46;17.70;99.90
5834;DHT22;2943;48.012;10.968;2022-08-19T07:21:16;17.70;99.90
5834;DHT22;2943;48.012;10.968;2022-08-19T07:23:45;17.70;99.90
5834;DHT22;2943;48.012;10.968;2022-08-19T07:26:17;17.70;99.90
5834;DHT22;2943;48.012;10.968;2022-08-19T07:28:46;17.70;99.90
5834;DHT22;2943;48.012;10.968;2022-08-19T07:31:18;17.80;99.90
5834;DHT22;2943;48.012;10.968;2022-08-19T07:33:47;17.70;99.90
5834;DHT22;2943;48.012;10.968;2022-08-19T07:36:17;17.70;99.90
5834;DHT22;2943;48.012;10.968;2022-08-19T07:38:48;17.70;99.90
5834;DHT22;2943;48.012;10.968;2022-08-19T07:41:18;17.70;99.90
5834;DHT22;2943;48.012;10.968;2022-08-19T07:43:48;17.70;99.90
5834;DHT22;2943;48.012;10.968;2022-08-19T07:46:16;17.80;99.90
5834;DHT22;2943;48.012;10.968;2022-08-19T07:48:44;17.80;99.90
5834;DHT22;2943;48.012;10.968;2022-08-19T07:51:15;17.80;99.90
5834;DHT22;2943;48.012;10.968;2022-08-19T07:53:43;17.80;99.90
5834;DHT22;2943;48.012;10.968;2022-08-19T07:56:12;17.80;99.90
5834;DHT22;2943;48.012;10.968;2022-08-19T07:58:42;17.80;99.90
5834;DHT22;2943;48.012;10.968;2022-08-19T08:01:14;17.80;99.90
5834;DHT22;2943;48.012;10.968;2022-08-19T08:03:42;17.90;99.90
5834;DHT22;2943;48.012;10.968;2022-08-19T08:06:27;17.90;99.90
5834;DHT22;2943;48.012;10.968;2022-08-19T08:09:13;17.90;99.90
5834;DHT22;2943;48.012;10.968;2022-08-19T08:11:50;17.90;99.90
5834;DHT22;2943;48.012;10.968;2022-08-19T08:14:21;17.90;99.90
5834;DHT22;2943;48.012;10.968;2022-08-19T08:16:51;18.00;99.90
5834;DHT22;2943;48.012;10.968;2022-08-19T08:19:20;18.00;99.90
5834;DHT22;2943;48.012;10.968;2022-08-19T08:21:49;18.00;99.90
5834;DHT22;2943;48.012;10.968;2022-08-19T08:24:17;18.00;99.90
5834;DHT22;2943;48.012;10.968;2022-08-19T08:26:44;18.00;99.90
5834;DHT22;2943;48.012;10.968;2022-08-19T08:29:12;18.00;99.90
5834;DHT22;2943;48.012;10.968;2022-08-19T08:31:43;18.00;99.90
5834;DHT22;2943;48.012;10.968;2022-08-19T08:34:13;18.00;99.90
5834;DHT22;2943;48.012;10.968;2022-08-19T08:36:43;18.00;99.90
5834;DHT22;2943;48.012;10.968;2022-08-19T08:39:12;18.10;99.90
5834;DHT22;2943;48.012;10.968;2022-08-19T08:41:46;18.10;99.90
5834;DHT22;2943;48.012;10.968;2022-08-19T08:44:19;18.10;99.90
5834;DHT22;2943;48.012;10.968;2022-08-19T08:46:50;18.10;99.90
5834;DHT22;2943;48.012;10.968;2022-08-19T08:49:26;18.10;99.90
5834;DHT22;2943;48.012;10.968;2022-08-19T08:52:03;18.00;99.90
5834;DHT22;2943;48.012;10.968;2022-08-19T08:54:35;18.00;99.90
5834;DHT22;2943;48.012;10.968;2022-08-19T08:57:07;18.00;99.90
5834;DHT22;2943;48.012;10.968;2022-08-19T08:59:39;18.10;99.90
5834;DHT22;2943;48.012;10.968;2022-08-19T09:02:08;18.00;99.90
5834;DHT22;2943;48.012;10.968;2022-08-19T09:04:37;18.10;99.90
5834;DHT22;2943;48.012;10.968;2022-08-19T09:07:25;18.10;99.90
5834;DHT22;2943;48.012;10.968;2022-08-19T09:10:04;18.20;99.90
5834;DHT22;2943;48.012;10.968;2022-08-19T09:12:41;18.20;99.90
5834;DHT22;2943;48.012;10.968;2022-08-19T09:15:13;18.20;99.90
5834;DHT22;2943;48.012;10.968;2022-08-19T09:17:41;18.30;99.90
5834;DHT22;2943;48.012;10.968;2022-08-19T09:20:18;18.30;99.90
5834;DHT22;2943;48.012;10.968;2022-08-19T09:22:46;18.40;99.90
5834;DHT22;2943;48.012;10.968;2022-08-19T09:25:17;18.40;99.90
5834;DHT22;2943;48.012;10.968;2022-08-19T09:27:46;18.40;99.90
5834;DHT22;2943;48.012;10.968;2022-08-19T09:30:22;18.40;99.90
5834;DHT22;2943;48.012;10.968;2022-08-19T09:32:51;18.40;99.90
5834;DHT22;2943;48.012;10.968;2022-08-19T09:35:22;18.40;99.90
5834;DHT22;2943;48.012;10.968;2022-08-19T09:37:50;18.30;99.90
5834;DHT22;2943;48.012;10.968;2022-08-19T09:40:19;18.30;99.90
5834;DHT22;2943;48.012;10.968;2022-08-19T09:42:47;18.20;99.90
5834;DHT22;2943;48.012;10.968;2022-08-19T09:45:15;18.30;99.90
5834;DHT22;2943;48.012;10.968;2022-08-19T09:47:43;18.20;99.90
5834;DHT22;2943;48.012;10.968;2022-08-19T09:50:11;18.20;99.90
5834;DHT22;2943;48.012;10.968;2022-08-19T09:52:40;18.20;99.90
5834;DHT22;2943;48.012;10.968;2022-08-19T09:55:10;18.20;99.90
5834;DHT22;2943;48.012;10.968;2022-08-19T09:57:38;18.20;99.90
5834;DHT22;2943;48.012;10.968;2022-08-19T10:00:08;18.10;99.90
5834;DHT22;2943;48.012;10.968;2022-08-19T10:02:36;18.10;99.90
5834;DHT22;2943;48.012;10.968;2022-08-19T10:05:04;18.10;99.90
5834;DHT22;2943;48.012;10.968;2022-08-19T10:07:50;18.20;99.90
5834;DHT22;2943;48.012;10.968;2022-08-19T10:10:18;18.20;99.90
5834;DHT22;2943;48.012;10.968;2022-08-19T10:12:45;18.10;99.90
5834;DHT22;2943;48.012;10.968;2022-08-19T10:15:13;18.10;99.90
5834;DHT22;2943;48.012;10.968;2022-08-19T10:17:41;18.00;99.90
5834;DHT22;2943;48.012;10.968;2022-08-19T10:20:09;18.10;99.90
5834;DHT22;2943;48.012;10.968;2022-08-19T10:22:37;18.10;99.90
5834;DHT22;2943;48.012;10.968;2022-08-19T10:25:08;18.10;99.90
5834;DHT22;2943;48.012;10.968;2022-08-19T10:27:35;18.20;99.90
5834;DHT22;2943;48.012;10.968;2022-08-19T10:30:04;18.20;99.90
5834;DHT22;2943;48.012;10.968;2022-08-19T10:32:32;18.20;99.90
5834;DHT22;2943;48.012;10.968;2022-08-19T10:34:59;18.20;99.90
5834;DHT22;2943;48.012;10.968;2022-08-19T10:37:28;18.20;99.90
5834;DHT22;2943;48.012;10.968;2022-08-19T10:39:56;18.20;99.90
5834;DHT22;2943;48.012;10.968;2022-08-19T10:42:25;18.20;99.90
5834;DHT22;2943;48.012;10.968;2022-08-19T10:44:52;18.20;99.90
5834;DHT22;2943;48.012;10.968;2022-08-19T10:47:19;18.20;99.90
5834;DHT22;2943;48.012;10.968;2022-08-19T10:49:49;18.20;99.90
5834;DHT22;2943;48.012;10.968;2022-08-19T10:52:33;18.20;99.90
5834;DHT22;2943;48.012;10.968;2022-08-19T10:55:01;18.20;99.90
5834;DHT22;2943;48.012;10.968;2022-08-19T10:57:52;18.20;99.90
5834;DHT22;2943;48.012;10.968;2022-08-19T11:00:20;18.20;99.90
5834;DHT22;2943;48.012;10.968;2022-08-19T11:02:48;18.30;99.90
5834;DHT22;2943;48.012;10.968;2022-08-19T11:05:19;18.30;99.90
5834;DHT22;2943;48.012;10.968;2022-08-19T11:07:48;18.30;99.90
5834;DHT22;2943;48.012;10.968;2022-08-19T11:10:16;18.20;99.90
5834;DHT22;2943;48.012;10.968;2022-08-19T11:12:44;18.20;99.90
5834;DHT22;2943;48.012;10.968;2022-08-19T11:15:15;18.30;99.90
5834;DHT22;2943;48.012;10.968;2022-08-19T11:17:42;18.30;99.90
5834;DHT22;2943;48.012;10.968;2022-08-19T11:20:11;18.30;99.90
5834;DHT22;2943;48.012;10.968;2022-08-19T11:22:39;18.30;99.90
5834;DHT22;2943;48.012;10.968;2022-08-19T11:25:08;18.30;99.90
5834;DHT22;2943;48.012;10.968;2022-08-19T11:27:38;18.30;99.90
5834;DHT22;2943;48.012;10.968;2022-08-19T11:30:08;18.20;99.90
5834;DHT22;2943;48.012;10.968;2022-08-19T11:32:38;18.20;99.90
5834;DHT22;2943;48.012;10.968;2022-08-19T11:35:06;18.20;99.90
5834;DHT22;2943;48.012;10.968;2022-08-19T11:37:34;18.10;99.90
5834;DHT22;2943;48.012;10.968;2022-08-19T11:40:05;18.10;99.90
5834;DHT22;2943;48.012;10.968;2022-08-19T11:42:33;18.00;99.90
5834;DHT22;2943;48.012;10.968;2022-08-19T11:45:17;18.00;99.90
5834;DHT22;2943;48.012;10.968;2022-08-19T11:47:46;18.00;99.90
5834;DHT22;2943;48.012;10.968;2022-08-19T11:50:14;17.90;99.90
5834;DHT22;2943;48.012;10.968;2022-08-19T11:52:42;17.90;99.90
5834;DHT22;2943;48.012;10.968;2022-08-19T11:55:11;17.90;99.90
5834;DHT22;2943;48.012;10.968;2022-08-19T11:57:39;17.90;99.90
5834;DHT22;2943;48.012;10.968;2022-08-19T12:00:08;17.90;99.90
5834;DHT22;2943;48.012;10.968;2022-08-19T12:02:37;17.80;99.90
5834;DHT22;2943;48.012;10.968;2022-08-19T12:05:07;17.80;99.90
5834;DHT22;2943;48.012;10.968;2022-08-19T12:07:35;17.80;99.90
5834;DHT22;2943;48.012;10.968;2022-08-19T12:10:02;17.70;99.90
5834;DHT22;2943;48.012;10.968;2022-08-19T12:12:30;17.70;99.90
5834;DHT22;2943;48.012;10.968;2022-08-19T12:14:57;17.70;99.90
5834;DHT22;2943;48.012;10.968;2022-08-19T12:17:25;17.70;99.90
5834;DHT22;2943;48.012;10.968;2022-08-19T12:19:53;17.80;99.90
5834;DHT22;2943;48.012;10.968;2022-08-19T12:22:22;17.80;99.90
5834;DHT22;2943;48.012;10.968;2022-08-19T12:24:49;17.80;99.90
5834;DHT22;2943;48.012;10.968;2022-08-19T12:27:19;17.90;99.90
5834;DHT22;2943;48.012;10.968;2022-08-19T12:29:46;17.90;99.90
5834;DHT22;2943;48.012;10.968;2022-08-19T12:32:15;18.00;99.90
5834;DHT22;2943;48.012;10.968;2022-08-19T12:34:42;18.00;99.90
5834;DHT22;2943;48.012;10.968;2022-08-19T12:37:10;18.00;99.90
5834;DHT22;2943;48.012;10.968;2022-08-19T12:39:41;18.10;99.90
5834;DHT22;2943;48.012;10.968;2022-08-19T12:42:09;18.20;99.90
5834;DHT22;2943;48.012;10.968;2022-08-19T12:44:38;18.30;99.90
5834;DHT22;2943;48.012;10.968;2022-08-19T12:47:09;18.30;99.90
5834;DHT22;2943;48.012;10.968;2022-08-19T12:49:37;18.30;99.90
5834;DHT22;2943;48.012;10.968;2022-08-19T12:52:06;18.30;99.90
5834;DHT22;2943;48.012;10.968;2022-08-19T12:54:34;18.30;99.90
5834;DHT22;2943;48.012;10.968;2022-08-19T12:57:07;18.30;99.90
5834;DHT22;2943;48.012;10.968;2022-08-19T12:59:34;18.30;99.90
5834;DHT22;2943;48.012;10.968;2022-08-19T13:02:02;18.40;99.90
5834;DHT22;2943;48.012;10.968;2022-08-19T13:04:31;18.40;99.90
5834;DHT22;2943;48.012;10.968;2022-08-19T13:07:01;18.40;99.90
5834;DHT22;2943;48.012;10.968;2022-08-19T13:09:28;18.50;99.90
5834;DHT22;2943;48.012;10.968;2022-08-19T13:11:55;18.60;99.90
5834;DHT22;2943;48.012;10.968;2022-08-19T13:14:25;18.60;99.90
5834;DHT22;2943;48.012;10.968;2022-08-19T13:16:52;18.80;99.90
5834;DHT22;2943;48.012;10.968;2022-08-19T13:19:20;18.80;99.90
5834;DHT22;2943;48.012;10.968;2022-08-19T13:21:49;18.90;99.90
5834;DHT22;2943;48.012;10.968;2022-08-19T13:24:17;19.00;99.90
5834;DHT22;2943;48.012;10.968;2022-08-19T13:26:44;19.10;99.90
5834;DHT22;2943;48.012;10.968;2022-08-19T13:29:11;19.10;99.90
5834;DHT22;2943;48.012;10.968;2022-08-19T13:31:58;19.20;99.90
5834;DHT22;2943;48.012;10.968;2022-08-19T13:34:43;19.30;99.90
5834;DHT22;2943;48.012;10.968;2022-08-19T13:37:12;19.40;99.90
5834;DHT22;2943;48.012;10.968;2022-08-19T13:39:39;19.40;99.90
5834;DHT22;2943;48.012;10.968;2022-08-19T13:42:07;19.40;99.90
5834;DHT22;2943;48.012;10.968;2022-08-19T13:44:35;19.50;99.90
5834;DHT22;2943;48.012;10.968;2022-08-19T13:47:05;19.50;99.90
5834;DHT22;2943;48.012;10.968;2022-08-19T13:49:34;19.60;99.90
5834;DHT22;2943;48.012;10.968;2022-08-19T13:52:03;19.70;99.90
5834;DHT22;2943;48.012;10.968;2022-08-19T13:54:31;19.70;99.90
5834;DHT22;2943;48.012;10.968;2022-08-19T13:56:58;19.70;99.90
5834;DHT22;2943;48.012;10.968;2022-08-19T13:59:26;19.80;99.90
5834;DHT22;2943;48.012;10.968;2022-08-19T14:01:57;19.80;99.90
5834;DHT22;2943;48.012;10.968;2022-08-19T14:04:26;19.90;99.90
5834;DHT22;2943;48.012;10.968;2022-08-19T14:06:54;19.80;99.90
5834;DHT22;2943;48.012;10.968;2022-08-19T14:09:21;19.70;99.90
5834;DHT22;2943;48.012;10.968;2022-08-19T14:11:49;19.70;99.90
5834;DHT22;2943;48.012;10.968;2022-08-19T14:14:16;19.70;99.90
5834;DHT22;2943;48.012;10.968;2022-08-19T14:16:43;19.70;99.90
5834;DHT22;2943;48.012;10.968;2022-08-19T14:19:11;19.70;99.90
5834;DHT22;2943;48.012;10.968;2022-08-19T14:21:40;19.60;99.90
5834;DHT22;2943;48.012;10.968;2022-08-19T14:24:08;19.60;99.90
5834;DHT22;2943;48.012;10.968;2022-08-19T14:26:35;19.60;99.90
5834;DHT22;2943;48.012;10.968;2022-08-19T14:29:02;19.60;99.90
5834;DHT22;2943;48.012;10.968;2022-08-19T14:31:30;19.60;99.90
5834;DHT22;2943;48.012;10.968;2022-08-19T14:33:57;19.60;99.90
5834;DHT22;2943;48.012;10.968;2022-08-19T14:36:25;19.60;99.90
5834;DHT22;2943;48.012;10.968;2022-08-19T14:38:53;19.60;99.90
5834;DHT22;2943;48.012;10.968;2022-08-19T14:41:22;19.60;99.90
5834;DHT22;2943;48.012;10.968;2022-08-19T14:43:51;19.50;99.90
5834;DHT22;2943;48.012;10.968;2022-08-19T14:46:23;19.40;99.90
5834;DHT22;2943;48.012;10.968;2022-08-19T14:48:52;19.30;99.90
5834;DHT22;2943;48.012;10.968;2022-08-19T14:51:21;19.30;99.90
5834;DHT22;2943;48.012;10.968;2022-08-19T14:53:48;19.20;99.90
5834;DHT22;2943;48.012;10.968;2022-08-19T14:56:20;19.20;99.90
5834;DHT22;2943;48.012;10.968;2022-08-19T14:58:48;19.10;99.90
5834;DHT22;2943;48.012;10.968;2022-08-19T15:01:18;19.10;99.90
5834;DHT22;2943;48.012;10.968;2022-08-19T15:03:47;19.00;99.90
5834;DHT22;2943;48.012;10.968;2022-08-19T15:06:15;19.10;99.90
5834;DHT22;2943;48.012;10.968;2022-08-19T15:08:43;19.00;99.90
5834;DHT22;2943;48.012;10.968;2022-08-19T15:11:12;19.00;99.90
5834;DHT22;2943;48.012;10.968;2022-08-19T15:13:42;19.00;99.90
5834;DHT22;2943;48.012;10.968;2022-08-19T15:16:10;18.90;99.90
5834;DHT22;2943;48.012;10.968;2022-08-19T15:18:37;18.90;99.90
5834;DHT22;2943;48.012;10.968;2022-08-19T15:21:05;18.80;99.90
5834;DHT22;2943;48.012;10.968;2022-08-19T15:23:34;18.70;99.90
5834;DHT22;2943;48.012;10.968;2022-08-19T15:26:01;18.60;99.90
5834;DHT22;2943;48.012;10.968;2022-08-19T15:28:30;18.60;99.90
5834;DHT22;2943;48.012;10.968;2022-08-19T15:31:00;18.60;99.90
5834;DHT22;2943;48.012;10.968;2022-08-19T15:33:27;18.50;99.90
5834;DHT22;2943;48.012;10.968;2022-08-19T15:35:55;18.60;99.90
5834;DHT22;2943;48.012;10.968;2022-08-19T15:38:23;18.60;99.90
5834;DHT22;2943;48.012;10.968;2022-08-19T15:40:52;18.70;99.90
5834;DHT22;2943;48.012;10.968;2022-08-19T15:43:41;18.70;99.90
5834;DHT22;2943;48.012;10.968;2022-08-19T15:46:10;18.80;99.90
5834;DHT22;2943;48.012;10.968;2022-08-19T15:48:37;18.80;99.90
5834;DHT22;2943;48.012;10.968;2022-08-19T15:51:05;18.80;99.90
5834;DHT22;2943;48.012;10.968;2022-08-19T15:53:32;18.80;99.90
5834;DHT22;2943;48.012;10.968;2022-08-19T15:56:00;18.80;99.90
5834;DHT22;2943;48.012;10.968;2022-08-19T15:58:27;18.90;99.90
5834;DHT22;2943;48.012;10.968;2022-08-19T16:01:13;19.00;99.90
5834;DHT22;2943;48.012;10.968;2022-08-19T16:04:09;19.00;99.90